createdAt,value
2018-11-27T00:00:46.548Z,100039.12
2018-11-27T00:03:55.094Z,100042.64
2018-11-27T00:07:05.266Z,100044.80
2018-11-27T00:10:09.721Z,100050.45
2018-11-27T00:13:13.013Z,100050.05
2018-11-27T00:16:16.264Z,100052.69
2018-11-27T00:19:19.588Z,100052.69
2018-11-27T00:22:22.880Z,100050.50
2018-11-27T00:25:26.193Z,100052.63
2018-11-27T00:28:29.481Z,100050.84
2018-11-27T00:31:32.762Z,100057.39
2018-11-27T00:34:36.081Z,100056.53
2018-11-27T00:37:39.401Z,100053.48
2018-11-27T00:40:42.701Z,100056.95
2018-11-27T00:43:45.973Z,100059.13
2018-11-27T00:46:49.289Z,100062.11
2018-11-27T00:49:52.816Z,100059.54
2018-11-27T00:52:56.141Z,100064.80
2018-11-27T00:55:59.541Z,100066.11
2018-11-27T00:59:02.814Z,100064.28
2018-11-27T01:02:06.388Z,100066.48
2018-11-27T01:05:11.966Z,100064.77
2018-11-27T01:08:15.305Z,100065.16
2018-11-27T01:11:18.620Z,100070.41
2018-11-27T01:14:21.917Z,100064.77
2018-11-27T01:17:25.176Z,100076.91
2018-11-27T01:20:28.894Z,100078.64
2018-11-27T01:23:32.169Z,100082.19
2018-11-27T01:26:35.458Z,100084.36
2018-11-27T01:29:38.745Z,100090.02
2018-11-27T01:32:42.104Z,100089.13
2018-11-27T01:35:45.390Z,100094.33
2018-11-27T01:38:48.692Z,100099.50
2018-11-27T01:41:52.052Z,100106.89
2018-11-27T01:44:55.337Z,100096.84
2018-11-27T01:47:58.633Z,100105.55
2018-11-27T01:51:01.981Z,100108.66
2018-11-27T01:54:05.659Z,100114.78
2018-11-27T01:57:08.950Z,100109.38
2018-11-27T02:00:21.052Z,100111.20
2018-11-27T02:03:39.264Z,100109.86
2018-11-27T02:06:42.554Z,100108.07
2018-11-27T02:09:45.830Z,100106.33
2018-11-27T02:12:50.518Z,100107.55
2018-11-27T02:15:53.810Z,100111.53
2018-11-27T02:18:57.077Z,100113.25
2018-11-27T02:22:00.398Z,100112.83
2018-11-27T02:25:05.774Z,100110.57
2018-11-27T02:28:09.093Z,100112.63
2018-11-27T02:31:12.391Z,100117.20
2018-11-27T02:34:15.650Z,100119.36
2018-11-27T02:37:18.993Z,100113.11
2018-11-27T02:40:22.358Z,100116.52
2018-11-27T02:43:25.637Z,100110.80
2018-11-27T02:46:28.920Z,100113.55
2018-11-27T02:49:32.211Z,100121.42
2018-11-27T02:52:35.545Z,100109.25
2018-11-27T02:55:38.831Z,100109.25
2018-11-27T02:58:42.156Z,100114.77
2018-11-27T03:01:45.437Z,100111.73
2018-11-27T03:04:48.721Z,100118.20
2018-11-27T03:07:52.009Z,100114.61
2018-11-27T03:10:55.274Z,100117.67
2018-11-27T03:13:58.553Z,100119.78
2018-11-27T03:17:01.921Z,100123.63
2018-11-27T03:20:07.891Z,100128.34
2018-11-27T03:23:11.201Z,100136.88
2018-11-27T03:26:14.485Z,100130.48
2018-11-27T03:29:17.769Z,100127.73
2018-11-27T03:32:21.063Z,100131.13
2018-11-27T03:35:25.213Z,100132.09
2018-11-27T03:38:28.596Z,100133.41
2018-11-27T03:41:31.929Z,100138.70
2018-11-27T03:44:35.229Z,100139.52
2018-11-27T03:47:38.637Z,100142.45
2018-11-27T03:50:41.933Z,100138.19
2018-11-27T03:53:46.023Z,100131.04
2018-11-27T03:56:49.289Z,100147.30
2018-11-27T03:59:52.585Z,100139.39
2018-11-27T04:03:06.915Z,100138.92
2018-11-27T04:06:10.194Z,100147.66
2018-11-27T04:09:13.526Z,100145.59
2018-11-27T04:12:16.835Z,100148.16
2018-11-27T04:15:20.191Z,100148.48
2018-11-27T04:18:23.470Z,100154.58
2018-11-27T04:21:26.802Z,100153.73
2018-11-27T04:24:30.109Z,100164.12
2018-11-27T04:27:33.387Z,100163.06
2018-11-27T04:30:36.693Z,100165.48
2018-11-27T04:33:40.009Z,100170.78
2018-11-27T04:36:43.294Z,100178.09
2018-11-27T04:39:46.579Z,100180.22
2018-11-27T04:42:49.862Z,100176.83
2018-11-27T04:45:53.189Z,100178.38
2018-11-27T04:48:56.490Z,100185.48
2018-11-27T04:51:59.777Z,100182.55
2018-11-27T04:55:03.235Z,100184.73
2018-11-27T04:58:06.574Z,100180.94
2018-11-27T05:01:09.902Z,100180.97
2018-11-27T05:04:13.245Z,100184.86
2018-11-27T05:07:16.542Z,100184.48
2018-11-27T05:10:22.328Z,100191.02
2018-11-27T05:13:25.572Z,100201.53
2018-11-27T05:16:28.852Z,100206.37
2018-11-27T05:19:32.109Z,100207.70
2018-11-27T05:22:35.773Z,100200.72
2018-11-27T05:25:39.091Z,100202.92
2018-11-27T05:28:42.352Z,100204.34
2018-11-27T05:31:45.646Z,100203.52
2018-11-27T05:34:48.912Z,100211.02
2018-11-27T05:37:52.225Z,100166.71
2018-11-27T05:40:55.480Z,100209.61
2018-11-27T05:43:58.780Z,100204.20
2018-11-27T05:47:02.153Z,100209.50
2018-11-27T05:50:08.629Z,100207.88
2018-11-27T05:53:11.937Z,100207.80
2018-11-27T05:56:15.236Z,100215.20
2018-11-27T05:59:18.550Z,100212.17
2018-11-27T06:02:21.833Z,100214.41
2018-11-27T06:05:25.333Z,100217.07
2018-11-27T06:08:28.612Z,100213.64
2018-11-27T06:11:31.930Z,100225.72
2018-11-27T06:14:35.237Z,100230.63
2018-11-27T06:17:38.541Z,100225.84
2018-11-27T06:20:41.861Z,100234.47
2018-11-27T06:23:45.129Z,100240.61
2018-11-27T06:26:48.469Z,100236.39
2018-11-27T06:29:51.770Z,100240.62
2018-11-27T06:32:55.077Z,100241.09
2018-11-27T06:35:58.345Z,100243.33
2018-11-27T06:39:01.621Z,100245.09
2018-11-27T06:42:05.161Z,100241.20
2018-11-27T06:45:11.414Z,100256.05
2018-11-27T06:48:14.717Z,100263.02
2018-11-27T06:51:18.033Z,100269.45
2018-11-27T06:54:21.346Z,100269.55
2018-11-27T06:57:24.693Z,100273.04
2018-11-27T07:00:28.736Z,100270.47
2018-11-27T07:03:32.080Z,100276.50
2018-11-27T07:06:35.453Z,100283.52
2018-11-27T07:09:38.737Z,100284.83
2018-11-27T07:12:42.030Z,100293.17
2018-11-27T07:15:45.572Z,100294.02
2018-11-27T07:18:49.608Z,100305.02
2018-11-27T07:21:52.206Z,100304.58
2018-11-27T07:24:55.499Z,100306.72
2018-11-27T07:27:58.868Z,100318.47
2018-11-27T07:31:02.213Z,100318.92
2018-11-27T07:34:05.816Z,100318.00
2018-11-27T07:37:09.084Z,100330.81
2018-11-27T07:40:18.124Z,100333.01
2018-11-27T07:43:21.431Z,100341.24
2018-11-27T07:46:24.727Z,100339.98
2018-11-27T07:49:28.024Z,100347.78
2018-11-27T07:52:31.320Z,100350.17
2018-11-27T07:55:34.661Z,100346.80
2018-11-27T07:58:38.090Z,100358.47
2018-11-27T08:01:41.360Z,100356.27
2018-11-27T08:04:44.705Z,100354.92
2018-11-27T08:07:51.444Z,100357.90
2018-11-27T08:10:54.875Z,100354.86
2018-11-27T08:13:58.230Z,100363.59
2018-11-27T08:17:01.532Z,100361.48
2018-11-27T08:20:06.523Z,100362.37
2018-11-27T08:23:11.006Z,100365.41
2018-11-27T08:26:14.360Z,100359.75
2018-11-27T08:29:17.725Z,100364.98
2018-11-27T08:32:20.993Z,100370.72
2018-11-27T08:35:27.210Z,100375.98
2018-11-27T08:38:30.513Z,100376.88
2018-11-27T08:41:40.357Z,100379.03
2018-11-27T08:44:37.221Z,100383.42
2018-11-27T08:47:40.616Z,100382.95
2018-11-27T08:50:43.957Z,100381.16
2018-11-27T08:53:47.260Z,100387.78
2018-11-27T08:56:50.655Z,100395.68
2018-11-27T08:59:54.681Z,100391.33
2018-11-27T09:02:58.013Z,100394.88
2018-11-27T09:06:01.341Z,100391.80
2018-11-27T09:09:09.071Z,100397.37
2018-11-27T09:12:12.412Z,100400.73
2018-11-27T09:15:17.328Z,100402.87
2018-11-27T09:18:24.800Z,100400.20
2018-11-27T09:21:28.108Z,100405.45
2018-11-27T09:24:31.464Z,100405.92
2018-11-27T09:27:34.761Z,100404.18
2018-11-27T09:30:38.161Z,100404.20
2018-11-27T09:33:41.460Z,100409.00
2018-11-27T09:36:44.790Z,100406.83
2018-11-27T09:39:48.136Z,100403.36
2018-11-27T09:42:51.521Z,100409.42
2018-11-27T09:45:54.850Z,100414.72
2018-11-27T09:48:58.132Z,100418.22
2018-11-27T09:52:01.429Z,100432.30
2018-11-27T09:55:08.509Z,100434.47
2018-11-27T09:58:11.887Z,100438.88
2018-11-27T10:01:15.204Z,100438.02
2018-11-27T10:04:18.519Z,100431.39
2018-11-27T10:07:21.827Z,100444.95
2018-11-27T10:10:25.641Z,100440.16
2018-11-27T10:13:28.977Z,100439.73
2018-11-27T10:16:32.285Z,100445.40
2018-11-27T10:19:35.589Z,100443.19
2018-11-27T10:22:38.933Z,100434.87
2018-11-27T10:25:42.256Z,100434.03
2018-11-27T10:28:45.589Z,100434.02
2018-11-27T10:31:48.941Z,100432.75
2018-11-27T10:34:52.265Z,100422.25
2018-11-27T10:37:55.603Z,100414.00
2018-11-27T10:40:58.902Z,100412.23
2018-11-27T10:44:02.249Z,100407.02
2018-11-27T10:47:05.720Z,100405.27
2018-11-27T10:50:11.577Z,100403.52
2018-11-27T10:53:14.915Z,100403.56
2018-11-27T10:56:18.192Z,100406.63
2018-11-27T10:59:21.525Z,100402.30
2018-11-27T11:02:31.239Z,100404.48
2018-11-27T11:05:35.803Z,100394.06
2018-11-27T11:08:39.129Z,100391.37
2018-11-27T11:11:42.437Z,100382.71
2018-11-27T11:14:45.769Z,100389.27
2018-11-27T11:17:49.129Z,100394.95
2018-11-27T11:20:52.443Z,100399.75
2018-11-27T11:23:56.369Z,100399.30
2018-11-27T11:26:59.701Z,100406.74
2018-11-27T11:30:03.533Z,100411.09
2018-11-27T11:33:08.346Z,100414.16
2018-11-27T11:36:11.633Z,100413.30
2018-11-27T11:39:14.984Z,100425.08
2018-11-27T11:42:18.298Z,100427.29
2018-11-27T11:45:21.632Z,100432.97
2018-11-27T11:48:24.959Z,100438.64
2018-11-27T11:51:28.277Z,100444.30
2018-11-27T11:54:31.628Z,100445.20
2018-11-27T11:57:34.942Z,100439.08
2018-11-27T12:00:42.702Z,100437.78
2018-11-27T12:03:46.044Z,100440.39
2018-11-27T12:06:49.316Z,100436.02
2018-11-27T12:09:52.660Z,100435.12
2018-11-27T12:12:55.981Z,100432.05
2018-11-27T12:15:59.289Z,100439.97
2018-11-27T12:19:03.257Z,100439.08
2018-11-27T12:22:06.696Z,100445.95
2018-11-27T12:25:11.627Z,100452.57
2018-11-27T12:28:15.200Z,100463.10
2018-11-27T12:31:18.273Z,100449.84
2018-11-27T12:34:21.613Z,100447.27
2018-11-27T12:37:25.042Z,100447.72
2018-11-27T12:40:28.844Z,100451.66
2018-11-27T12:43:32.897Z,100447.77
2018-11-27T12:46:36.217Z,100449.58
2018-11-27T12:49:39.542Z,100450.87
2018-11-27T12:52:42.943Z,100462.10
2018-11-27T12:55:48.870Z,100480.41
2018-11-27T12:58:52.169Z,100471.33
2018-11-27T13:01:55.493Z,100462.67
2018-11-27T13:04:58.817Z,100464.45
2018-11-27T13:08:04.108Z,100469.09
2018-11-27T13:11:11.540Z,100474.66
2018-11-27T13:14:10.784Z,100472.19
2018-11-27T13:17:14.120Z,100473.98
2018-11-27T13:20:18.597Z,100470.49
2018-11-27T13:23:21.933Z,100469.09
2018-11-27T13:26:25.283Z,100480.03
2018-11-27T13:29:28.596Z,100480.03
2018-11-27T13:32:32.034Z,100487.11
2018-11-27T13:35:36.117Z,100477.11
2018-11-27T13:38:39.693Z,100482.75
2018-11-27T13:41:43.113Z,100477.91
2018-11-27T13:44:46.525Z,100489.73
2018-11-27T13:47:49.847Z,100484.84
2018-11-27T13:50:53.173Z,100481.00
2018-11-27T13:53:56.505Z,100477.06
2018-11-27T13:56:59.836Z,100478.79
2018-11-27T14:00:03.597Z,100478.30
2018-11-27T14:03:10.771Z,100483.19
2018-11-27T14:06:10.774Z,100488.40
2018-11-27T14:09:14.084Z,100491.07
2018-11-27T14:12:17.413Z,100495.42
2018-11-27T14:15:24.352Z,100501.53
2018-11-27T14:18:27.215Z,100500.58
2018-11-27T14:21:30.523Z,100507.63
2018-11-27T14:24:33.868Z,100501.07
2018-11-27T14:27:37.237Z,100496.23
2018-11-27T14:30:40.706Z,100505.84
2018-11-27T14:33:44.072Z,100507.18
2018-11-27T14:36:47.774Z,100495.83
2018-11-27T14:39:51.091Z,100497.55
2018-11-27T14:42:54.493Z,100502.39
2018-11-27T14:45:58.767Z,100498.48
2018-11-27T14:49:02.870Z,100504.98
2018-11-27T14:52:06.264Z,100507.70
2018-11-27T14:55:11.779Z,100519.43
2018-11-27T14:58:15.236Z,100507.63
2018-11-27T15:01:18.435Z,100507.61
2018-11-27T15:04:21.865Z,100511.06
2018-11-27T15:07:25.846Z,100507.58
2018-11-27T15:10:29.235Z,100508.89
2018-11-27T15:13:35.543Z,100513.70
2018-11-27T15:16:38.865Z,100506.70
2018-11-27T15:19:42.248Z,100509.44
2018-11-27T15:22:45.763Z,100518.34
2018-11-27T15:25:49.180Z,100525.38
2018-11-27T15:28:52.503Z,100524.73
2018-11-27T15:31:55.868Z,100522.95
2018-11-27T15:34:59.225Z,100532.06
2018-11-27T15:38:02.597Z,100541.73
2018-11-27T15:41:06.533Z,100538.14
2018-11-27T15:44:09.919Z,100524.53
2018-11-27T15:47:13.261Z,100524.97
2018-11-27T15:50:16.593Z,100528.91
2018-11-27T15:53:19.916Z,100521.89
2018-11-27T15:56:23.268Z,100517.09
2018-11-27T15:59:26.596Z,100517.50
2018-11-27T16:02:29.897Z,100521.94
2018-11-27T16:05:33.257Z,100527.62
2018-11-27T16:08:36.624Z,100531.25
2018-11-27T16:11:39.976Z,100525.03
2018-11-27T16:14:43.272Z,100524.08
2018-11-27T16:17:47.292Z,100522.77
2018-11-27T16:20:50.616Z,100521.00
2018-11-27T16:23:53.895Z,100527.07
2018-11-27T16:26:57.225Z,100528.81
2018-11-27T16:30:00.509Z,100538.06
2018-11-27T16:33:03.944Z,100538.50
2018-11-27T16:36:07.272Z,100532.25
2018-11-27T16:39:12.067Z,100527.06
2018-11-27T16:42:15.409Z,100532.28
2018-11-27T16:45:20.213Z,100540.17
2018-11-27T16:48:23.562Z,100550.70
2018-11-27T16:51:26.897Z,100533.55
2018-11-27T16:54:30.205Z,100547.09
2018-11-27T16:57:33.566Z,100551.97
2018-11-27T17:00:36.862Z,100560.23
2018-11-27T17:03:40.192Z,100557.95
2018-11-27T17:06:43.511Z,100559.30
2018-11-27T17:09:52.842Z,100553.62
2018-11-27T17:12:57.637Z,100536.62
2018-11-27T17:16:00.934Z,100527.92
2018-11-27T17:19:04.340Z,100531.03
2018-11-27T17:22:07.814Z,100535.76
2018-11-27T17:25:11.191Z,100541.80
2018-11-27T17:28:18.968Z,100546.22
2018-11-27T17:31:22.284Z,100548.31
2018-11-27T17:34:25.569Z,100543.56
2018-11-27T17:37:28.880Z,100546.98
2018-11-27T17:40:32.470Z,100540.90
2018-11-27T17:43:35.961Z,100551.84
2018-11-27T17:46:39.277Z,100554.96
2018-11-27T17:49:42.666Z,100544.42
2018-11-27T17:52:46.017Z,100549.64
2018-11-27T17:55:49.393Z,100548.66
2018-11-27T17:58:52.713Z,100557.29
2018-11-27T18:01:56.026Z,100558.93
2018-11-27T18:04:59.377Z,100556.36
2018-11-27T18:08:02.773Z,100554.95
2018-11-27T18:11:06.218Z,100554.34
2018-11-27T18:14:09.541Z,100560.62
2018-11-27T18:17:12.885Z,100562.16
2018-11-27T18:20:16.280Z,100560.31
2018-11-27T18:23:19.585Z,100563.70
2018-11-27T18:26:22.942Z,100571.30
2018-11-27T18:29:26.289Z,100575.52
2018-11-27T18:32:29.626Z,100586.59
2018-11-27T18:35:32.979Z,100579.39
2018-11-27T18:38:36.284Z,100574.06
2018-11-27T18:41:39.649Z,100564.78
2018-11-27T18:44:42.944Z,100565.02
2018-11-27T18:47:46.493Z,100564.34
2018-11-27T18:50:49.879Z,100560.64
2018-11-27T18:53:55.070Z,100562.27
2018-11-27T18:56:56.541Z,100563.36
2018-11-27T18:59:59.833Z,100562.06
2018-11-27T19:03:03.249Z,100556.27
2018-11-27T19:06:09.574Z,100562.54
2018-11-27T19:09:12.980Z,100566.84
2018-11-27T19:12:16.705Z,100559.08
2018-11-27T19:15:27.341Z,100559.89
2018-11-27T19:18:30.677Z,100556.78
2018-11-27T19:21:33.984Z,100558.43
2018-11-27T19:24:37.327Z,100562.73
2018-11-27T19:27:40.890Z,100561.39
2018-11-27T19:30:44.521Z,100555.63
2018-11-27T19:33:47.821Z,100554.44
2018-11-27T19:36:51.117Z,100554.59
2018-11-27T19:39:54.433Z,100553.28
2018-11-27T19:42:57.776Z,100550.41
2018-11-27T19:46:01.117Z,100489.14
2018-11-27T19:49:04.624Z,100539.53
2018-11-27T19:52:07.969Z,100536.43
2018-11-27T19:55:14.933Z,100533.23
2018-11-27T19:58:18.260Z,100544.56
2018-11-27T20:01:21.682Z,100542.49
2018-11-27T20:04:25.028Z,100532.69
2018-11-27T20:07:28.334Z,100528.09
2018-11-27T20:10:31.676Z,100541.50
2018-11-27T20:13:35.038Z,100546.94
2018-11-27T20:16:38.428Z,100550.16
2018-11-27T20:19:41.712Z,100546.55
2018-11-27T20:22:45.103Z,100553.09
2018-11-27T20:25:48.433Z,100558.60
2018-11-27T20:28:51.745Z,100554.75
2018-11-27T20:31:55.065Z,100562.95
2018-11-27T20:34:58.413Z,100559.77
2018-11-27T20:38:05.513Z,100569.13
2018-11-27T20:41:08.825Z,100574.00
2018-11-27T20:44:12.129Z,100568.73
2018-11-27T20:47:15.449Z,100568.38
2018-11-27T20:50:20.493Z,100570.95
2018-11-27T20:53:23.842Z,100570.39
2018-11-27T20:56:27.289Z,100564.98
2018-11-27T20:59:30.655Z,100569.80
2018-11-27T21:02:33.972Z,100570.81
2018-11-27T21:05:37.373Z,100563.72
2018-11-27T21:08:40.798Z,100564.53
2018-11-27T21:11:44.137Z,100565.30
2018-11-27T21:14:47.467Z,100556.98
2018-11-27T21:17:50.775Z,100558.20
2018-11-27T21:20:54.093Z,100561.56
2018-11-27T21:23:57.402Z,100562.09
2018-11-27T21:27:00.697Z,100560.55
2018-11-27T21:30:08.660Z,100563.16
2018-11-27T21:33:12.020Z,100563.36
2018-11-27T21:36:15.540Z,100561.59
2018-11-27T21:39:18.966Z,100567.80
2018-11-27T21:42:22.282Z,100576.07
2018-11-27T21:45:27.005Z,100572.75
2018-11-27T21:48:30.312Z,100577.67
2018-11-27T21:51:33.624Z,100577.45
2018-11-27T21:54:36.932Z,100569.23
2018-11-27T21:57:40.317Z,100564.42
2018-11-27T22:00:43.645Z,100569.19
2018-11-27T22:03:47.025Z,100566.01
2018-11-27T22:06:50.365Z,100565.02
2018-11-27T22:09:53.766Z,100563.19
2018-11-27T22:12:58.073Z,100566.92
2018-11-27T22:16:01.400Z,100555.87
2018-11-27T22:19:04.817Z,100560.22
2018-11-27T22:22:08.092Z,100563.42
2018-11-27T22:25:11.966Z,100557.35
2018-11-27T22:28:15.261Z,100560.75
2018-11-27T22:31:18.525Z,100566.04
2018-11-27T22:34:21.817Z,100552.52
2018-11-27T22:37:25.150Z,100548.46
2018-11-27T22:40:28.436Z,100553.33
2018-11-27T22:43:31.747Z,100554.99
2018-11-27T22:46:35.086Z,100554.64
2018-11-27T22:49:38.399Z,100556.83
2018-11-27T22:52:41.772Z,100557.52
2018-11-27T22:55:45.045Z,100561.30
2018-11-27T22:58:48.328Z,100570.62
2018-11-27T23:01:51.612Z,100573.03
2018-11-27T23:04:54.929Z,100575.81
2018-11-27T23:07:58.336Z,100572.31
2018-11-27T23:11:01.596Z,100575.75
2018-11-27T23:14:05.139Z,100565.30
2018-11-27T23:17:08.437Z,100571.34
2018-11-27T23:20:14.547Z,100565.05
2018-11-27T23:23:17.869Z,100558.95
2018-11-27T23:26:21.153Z,100554.57
2018-11-27T23:29:24.466Z,100555.07
2018-11-27T23:32:27.749Z,100541.86
2018-11-27T23:35:31.069Z,100545.89
2018-11-27T23:38:34.344Z,100547.73
2018-11-27T23:41:37.628Z,100538.30
2018-11-27T23:44:40.922Z,100546.20
2018-11-27T23:47:44.329Z,100544.44
2018-11-27T23:50:47.610Z,100543.38
2018-11-27T23:53:50.898Z,100540.59
2018-11-27T23:56:54.166Z,100536.39
2018-11-27T23:59:57.490Z,100529.90
